createdAt,value
2023-04-10T00:00:02.345Z,88.67
2023-04-10T00:01:02.285Z,88.77
2023-04-10T00:02:02.341Z,88.77
2023-04-10T00:03:02.507Z,88.67
2023-04-10T00:04:02.495Z,88.46
2023-04-10T00:05:02.296Z,87.94
2023-04-10T00:06:02.256Z,87.52
2023-04-10T00:07:02.220Z,87.63
2023-04-10T00:08:02.257Z,87.94
2023-04-10T00:09:02.205Z,88.15
2023-04-10T00:10:02.281Z,88.25
2023-04-10T00:11:02.181Z,88.25
2023-04-10T00:12:02.186Z,88.46
2023-04-10T00:13:02.161Z,88.35
2023-04-10T00:14:02.189Z,88.31
2023-04-10T00:15:02.138Z,88.21
2023-04-10T00:16:02.240Z,87.90
2023-04-10T00:17:02.222Z,87.59
2023-04-10T00:18:02.175Z,87.17
2023-04-10T00:19:02.098Z,87.07
2023-04-10T00:20:02.190Z,87.48
2023-04-10T00:21:02.081Z,87.48
2023-04-10T00:22:02.080Z,87.38
2023-04-10T00:23:02.078Z,86.86
2023-04-10T00:24:02.068Z,86.86
2023-04-10T00:25:02.045Z,87.11
2023-04-10T00:26:02.069Z,87.42
2023-04-10T00:27:02.031Z,87.42
2023-04-10T00:28:02.067Z,87.32
2023-04-10T00:29:02.037Z,87.63
2023-04-10T00:30:02.011Z,87.63
2023-04-10T00:31:01.977Z,87.21
2023-04-10T00:32:02.034Z,86.80
2023-04-10T00:33:01.999Z,87.04
2023-04-10T00:34:01.970Z,87.15
2023-04-10T00:35:01.942Z,87.15
2023-04-10T00:36:02.000Z,87.04
2023-04-10T00:37:01.954Z,86.63
2023-04-10T00:38:01.923Z,86.52
2023-04-10T00:39:01.917Z,86.83
2023-04-10T00:40:01.899Z,87.29
2023-04-10T00:41:01.981Z,87.50
2023-04-10T00:42:01.888Z,87.71
2023-04-10T00:43:01.856Z,88.02
2023-04-10T00:44:01.922Z,88.33
2023-04-10T00:45:01.838Z,88.43
2023-04-10T00:46:01.930Z,88.85
2023-04-10T00:47:01.817Z,89.00
2023-04-10T00:48:01.882Z,89.10
2023-04-10T00:49:01.786Z,89.20
2023-04-10T00:50:01.793Z,89.20
2023-04-10T00:51:01.862Z,89.00
2023-04-10T00:52:01.783Z,88.89
2023-04-10T00:53:01.746Z,89.00
2023-04-10T00:54:01.793Z,89.00
2023-04-10T00:55:01.740Z,89.41
2023-04-10T00:56:01.781Z,89.52
2023-04-10T00:57:01.708Z,89.83
2023-04-10T00:58:01.756Z,89.31
2023-04-10T00:59:01.686Z,88.68
2023-04-10T01:00:01.724Z,88.58
2023-04-10T01:01:01.695Z,89.52
2023-04-10T01:02:01.795Z,89.98
2023-04-10T01:03:01.951Z,90.39
2023-04-10T01:04:01.731Z,90.70
2023-04-10T01:05:01.628Z,90.87
2023-04-10T01:06:01.647Z,90.97
2023-04-10T01:07:01.600Z,90.87
2023-04-10T01:08:01.604Z,90.66
2023-04-10T01:09:01.588Z,90.04
2023-04-10T01:10:01.594Z,89.62
2023-04-10T01:11:01.557Z,89.41
2023-04-10T01:12:01.598Z,89.00
2023-04-10T01:13:01.570Z,88.79
2023-04-10T01:14:01.541Z,88.48
2023-04-10T01:15:01.541Z,88.48
2023-04-10T01:16:01.535Z,88.17
2023-04-10T01:17:01.521Z,88.10
2023-04-10T01:18:01.543Z,88.20
2023-04-10T01:19:01.469Z,88.52
2023-04-10T01:20:01.493Z,89.04
2023-04-10T01:21:01.454Z,89.35
2023-04-10T01:22:01.476Z,89.50
2023-04-10T01:23:01.432Z,89.39
2023-04-10T01:24:01.458Z,89.50
2023-04-10T01:25:01.405Z,89.70
2023-04-10T01:26:01.414Z,90.12
2023-04-10T01:27:01.383Z,90.33
2023-04-10T01:28:01.435Z,90.44
2023-04-10T01:29:01.443Z,90.75
2023-04-10T01:30:01.403Z,91.06
2023-04-10T01:31:01.403Z,91.16
2023-04-10T01:32:01.346Z,91.27
2023-04-10T01:33:01.344Z,90.95
2023-04-10T01:34:01.367Z,90.44
2023-04-10T01:35:01.317Z,90.19
2023-04-10T01:36:01.330Z,89.98
2023-04-10T01:37:01.296Z,90.08
2023-04-10T01:38:01.283Z,89.98
2023-04-10T01:39:01.264Z,89.56
2023-04-10T01:40:01.298Z,88.93
2023-04-10T01:41:01.255Z,88.83
2023-04-10T01:43:28.934Z,88.83
2023-04-10T01:43:34.435Z,88.83
2023-04-10T01:44:34.459Z,88.73
2023-04-10T01:45:34.408Z,88.83
2023-04-10T01:46:34.449Z,89.25
2023-04-10T01:47:34.415Z,88.93
2023-04-10T01:48:34.395Z,88.52
2023-04-10T01:49:34.368Z,88.73
2023-04-10T01:50:34.385Z,88.73
2023-04-10T01:51:34.352Z,88.62
2023-04-10T01:52:34.374Z,88.83
2023-04-10T01:53:34.326Z,88.52
2023-04-10T01:54:34.353Z,88.20
2023-04-10T01:55:34.309Z,87.89
2023-04-10T01:56:34.325Z,87.99
2023-04-10T01:57:34.288Z,88.14
2023-04-10T01:58:34.294Z,88.24
2023-04-10T01:59:34.266Z,88.66
2023-04-10T02:00:34.290Z,88.98
2023-04-10T02:01:34.309Z,89.29
2023-04-10T02:02:34.451Z,89.60
2023-04-10T02:03:34.542Z,89.81
2023-04-10T02:04:34.343Z,89.81
2023-04-10T02:05:34.222Z,89.70
2023-04-10T02:06:34.212Z,89.60
2023-04-10T02:07:34.194Z,89.39
2023-04-10T02:08:34.206Z,89.08
2023-04-10T02:09:34.163Z,88.98
2023-04-10T02:10:34.171Z,88.87
2023-04-10T02:11:34.144Z,89.29
2023-04-10T02:12:34.179Z,89.70
2023-04-10T02:13:34.125Z,89.81
2023-04-10T02:14:34.147Z,89.70
2023-04-10T02:15:34.108Z,89.81
2023-04-10T02:16:34.141Z,89.81
2023-04-10T02:17:34.110Z,89.39
2023-04-10T02:18:34.118Z,89.08
2023-04-10T02:19:34.094Z,88.98
2023-04-10T02:20:34.094Z,89.01
2023-04-10T02:21:34.043Z,89.12
2023-04-10T02:22:34.087Z,89.43
2023-04-10T02:23:34.021Z,89.95
2023-04-10T02:24:34.031Z,90.79
2023-04-10T02:25:34.042Z,90.79
2023-04-10T02:26:34.022Z,90.47
2023-04-10T02:27:33.977Z,90.16
2023-04-10T02:28:34.002Z,90.47
2023-04-10T02:29:33.988Z,90.68
2023-04-10T02:30:33.981Z,90.47
2023-04-10T02:31:33.991Z,89.43
2023-04-10T02:32:34.019Z,89.85
2023-04-10T02:33:33.932Z,90.26
2023-04-10T02:34:33.962Z,90.26
2023-04-10T02:35:33.915Z,90.16
2023-04-10T02:36:33.925Z,90.26
2023-04-10T02:37:33.881Z,90.06
2023-04-10T02:38:33.902Z,89.85
2023-04-10T02:39:33.866Z,89.75
2023-04-10T02:40:33.890Z,89.75
2023-04-10T02:41:33.837Z,89.75
2023-04-10T02:42:33.857Z,89.75
2023-04-10T02:43:33.824Z,89.64
2023-04-10T02:44:33.842Z,89.75
2023-04-10T02:45:33.812Z,89.85
2023-04-10T02:46:33.866Z,89.85
2023-04-10T02:47:33.802Z,89.95
2023-04-10T02:48:33.799Z,89.85
2023-04-10T02:49:33.781Z,90.20
2023-04-10T02:50:33.786Z,90.62
2023-04-10T02:51:33.739Z,90.93
2023-04-10T02:52:33.750Z,90.83
2023-04-10T02:53:33.723Z,90.62
2023-04-10T02:54:33.736Z,90.62
2023-04-10T02:55:33.711Z,90.52
2023-04-10T02:56:33.720Z,90.56
2023-04-10T02:57:33.675Z,90.77
2023-04-10T02:58:33.695Z,90.97
2023-04-10T02:59:33.651Z,91.29
2023-04-10T03:00:33.660Z,91.50
2023-04-10T03:01:33.787Z,91.71
2023-04-10T03:02:33.785Z,91.60
2023-04-10T03:03:33.666Z,91.81
2023-04-10T03:04:33.711Z,91.81
2023-04-10T03:05:33.602Z,92.02
2023-04-10T03:06:32.599Z,91.81
2023-04-10T03:07:33.582Z,91.81
2023-04-10T03:08:33.596Z,91.60
2023-04-10T03:09:33.573Z,91.71
2023-04-10T03:10:33.567Z,91.75
2023-04-10T03:11:33.533Z,91.85
2023-04-10T03:12:33.548Z,91.75
2023-04-10T03:13:33.517Z,91.64
2023-04-10T03:14:33.538Z,91.64
2023-04-10T03:15:33.511Z,91.75
2023-04-10T03:16:33.629Z,91.85
2023-04-10T03:17:33.506Z,92.16
2023-04-10T03:18:33.494Z,92.06
2023-04-10T03:19:33.457Z,91.85
2023-04-10T03:20:33.468Z,92.00
2023-04-10T03:21:33.433Z,92.31
2023-04-10T03:22:33.450Z,92.58
2023-04-10T03:23:33.437Z,92.47
2023-04-10T03:24:33.433Z,92.16
2023-04-10T03:25:33.396Z,91.75
2023-04-10T03:26:33.410Z,91.54
2023-04-10T03:27:33.375Z,91.33
2023-04-10T03:28:33.409Z,91.54
2023-04-10T03:29:33.368Z,91.33
2023-04-10T03:30:33.380Z,90.91
2023-04-10T03:31:33.390Z,91.02
2023-04-10T03:32:33.352Z,91.02
2023-04-10T03:33:33.411Z,91.02
2023-04-10T03:34:33.333Z,90.91
2023-04-10T03:35:33.310Z,90.66
2023-04-10T03:36:33.316Z,90.35
2023-04-10T03:37:33.274Z,90.25
2023-04-10T03:38:33.300Z,90.25
2023-04-10T03:39:33.268Z,90.25
2023-04-10T03:40:33.287Z,90.08
2023-04-10T03:41:33.249Z,90.18
2023-04-10T03:42:33.244Z,90.28
2023-04-10T03:43:33.227Z,90.18
2023-04-10T03:44:33.237Z,90.08
2023-04-10T03:45:33.202Z,89.83
2023-04-10T03:46:33.222Z,89.87
2023-04-10T03:47:33.212Z,89.76
2023-04-10T03:48:33.193Z,89.56
2023-04-10T03:49:33.157Z,89.56
2023-04-10T03:50:33.162Z,89.56
2023-04-10T03:51:33.151Z,89.45
2023-04-10T03:52:33.142Z,89.34
2023-04-10T03:53:34.961Z,89.45
2023-04-10T03:54:33.145Z,89.66
2023-04-10T03:55:33.114Z,89.66
2023-04-10T03:56:33.117Z,89.97
2023-04-10T03:57:33.077Z,89.97
2023-04-10T03:58:33.099Z,90.22
2023-04-10T03:59:38.555Z,90.43
2023-04-10T04:00:33.076Z,90.95
2023-04-10T04:01:33.083Z,91.33
2023-04-10T04:02:33.159Z,91.47
2023-04-10T04:03:33.217Z,91.12
2023-04-10T04:04:33.224Z,90.22
2023-04-10T04:05:33.021Z,89.91
2023-04-10T04:06:33.002Z,90.12
2023-04-10T04:07:32.919Z,89.70
2023-04-10T04:08:32.997Z,89.91
2023-04-10T04:09:32.914Z,89.70
2023-04-10T04:10:32.922Z,89.59
2023-04-10T04:11:32.959Z,89.81
2023-04-10T04:12:32.934Z,89.81
2023-04-10T04:13:32.960Z,89.39
2023-04-10T04:14:32.860Z,89.81
2023-04-10T04:15:32.925Z,89.84
2023-04-10T04:16:32.932Z,90.26
2023-04-10T04:17:32.877Z,90.26
2023-04-10T04:18:32.814Z,90.78
2023-04-10T04:19:32.812Z,90.89
2023-04-10T04:20:32.795Z,91.00
2023-04-10T04:21:32.807Z,91.00
2023-04-10T04:22:32.787Z,90.72
2023-04-10T04:23:32.775Z,91.03
2023-04-10T04:24:32.759Z,91.46
2023-04-10T04:25:32.771Z,91.77
2023-04-10T04:26:32.762Z,91.56
2023-04-10T04:27:32.743Z,90.93
2023-04-10T04:28:32.721Z,90.93
2023-04-10T04:29:32.713Z,91.35
2023-04-10T04:30:32.688Z,91.98
2023-04-10T04:31:32.965Z,92.50
2023-04-10T04:32:32.711Z,92.71
2023-04-10T04:33:32.683Z,92.29
2023-04-10T04:34:32.645Z,92.04
2023-04-10T04:35:32.693Z,91.41
2023-04-10T04:36:32.634Z,90.78
2023-04-10T04:37:32.646Z,90.58
2023-04-10T04:38:32.619Z,90.37
2023-04-10T04:39:32.611Z,90.26
2023-04-10T04:40:32.596Z,90.72
2023-04-10T04:41:32.790Z,91.14
2023-04-10T04:42:32.572Z,91.46
2023-04-10T04:43:32.588Z,91.77
2023-04-10T04:44:32.544Z,91.98
2023-04-10T04:45:32.564Z,92.19
2023-04-10T04:46:32.549Z,92.50
2023-04-10T04:47:32.569Z,92.71
2023-04-10T04:48:32.523Z,92.92
2023-04-10T04:49:32.525Z,93.02
2023-04-10T04:50:32.498Z,93.13
2023-04-10T04:51:32.510Z,93.13
2023-04-10T04:52:32.464Z,93.13
2023-04-10T04:53:32.472Z,93.54
2023-04-10T04:54:32.464Z,93.65
2023-04-10T04:55:32.463Z,93.44
2023-04-10T04:56:32.427Z,93.29
2023-04-10T04:57:32.432Z,92.88
2023-04-10T04:58:32.414Z,92.88
2023-04-10T04:59:32.434Z,92.77
2023-04-10T05:00:32.401Z,92.66
2023-04-10T05:01:32.453Z,92.46
2023-04-10T05:02:32.515Z,92.66
2023-04-10T05:03:32.504Z,92.66
2023-04-10T05:04:32.352Z,92.98
2023-04-10T05:05:32.374Z,93.19
2023-04-10T05:06:32.346Z,92.98
2023-04-10T05:07:32.349Z,92.88
2023-04-10T05:08:32.304Z,93.08
2023-04-10T05:09:32.324Z,93.19
2023-04-10T05:10:32.283Z,93.08
2023-04-10T05:11:32.305Z,92.94
2023-04-10T05:12:32.276Z,92.73
2023-04-10T05:13:32.310Z,92.52
2023-04-10T05:14:32.240Z,92.21
2023-04-10T05:15:32.305Z,91.79
2023-04-10T05:16:32.236Z,90.64
2023-04-10T05:17:32.311Z,90.22
2023-04-10T05:18:32.208Z,90.12
2023-04-10T05:19:32.219Z,90.33
2023-04-10T05:20:32.194Z,90.85
2023-04-10T05:21:32.208Z,91.27
2023-04-10T05:22:32.171Z,91.64
2023-04-10T05:23:32.202Z,91.64
2023-04-10T05:24:32.142Z,91.54
2023-04-10T05:25:32.162Z,91.33
2023-04-10T05:26:32.129Z,91.22
2023-04-10T05:27:32.133Z,91.22
2023-04-10T05:28:32.114Z,90.97
2023-04-10T05:29:32.134Z,91.08
2023-04-10T05:30:32.118Z,91.08
2023-04-10T05:31:32.109Z,91.08
2023-04-10T05:32:32.154Z,91.29
2023-04-10T05:33:32.102Z,91.18
2023-04-10T05:34:32.044Z,91.08
2023-04-10T05:35:32.113Z,90.97
2023-04-10T05:36:32.025Z,90.97
2023-04-10T05:37:32.033Z,90.83
2023-04-10T05:38:32.019Z,90.52
2023-04-10T05:39:32.031Z,90.31
2023-04-10T05:40:32.005Z,90.41
2023-04-10T05:41:32.017Z,90.72
2023-04-10T05:42:31.966Z,90.83
2023-04-10T05:43:31.991Z,90.83
2023-04-10T05:44:31.963Z,91.14
2023-04-10T05:45:31.956Z,91.46
2023-04-10T05:46:31.952Z,91.66
2023-04-10T05:47:32.003Z,91.87
2023-04-10T05:48:31.922Z,92.03
2023-04-10T05:49:31.922Z,91.93
2023-04-10T05:50:31.893Z,91.72
2023-04-10T05:51:31.923Z,91.47
2023-04-10T05:52:31.875Z,91.37
2023-04-10T05:53:31.894Z,91.12
2023-04-10T05:54:31.858Z,91.02
2023-04-10T05:55:31.854Z,90.91
2023-04-10T05:56:31.827Z,90.97
2023-04-10T05:57:31.847Z,90.87
2023-04-10T05:58:31.808Z,90.77
2023-04-10T05:59:31.832Z,90.77
2023-04-10T06:00:31.792Z,90.87
2023-04-10T06:01:31.793Z,90.83
2023-04-10T06:02:31.927Z,90.83
2023-04-10T06:03:31.901Z,90.83
2023-04-10T06:04:32.013Z,90.83
2023-04-10T06:05:31.749Z,90.58
2023-04-10T06:06:31.725Z,90.26
2023-04-10T06:07:31.746Z,89.81
2023-04-10T06:08:31.701Z,89.36
2023-04-10T06:09:31.737Z,89.00
2023-04-10T06:10:31.677Z,88.69
2023-04-10T06:11:31.683Z,88.23
2023-04-10T06:12:31.652Z,87.92
2023-04-10T06:13:31.677Z,87.57
2023-04-10T06:14:31.638Z,87.32
2023-04-10T06:15:31.672Z,86.91
2023-04-10T06:16:31.684Z,86.15
2023-04-10T06:17:31.681Z,85.42
2023-04-10T06:18:31.602Z,85.06
2023-04-10T06:19:31.616Z,84.30
2023-04-10T06:20:31.573Z,83.99
2023-04-10T06:21:31.582Z,83.44
2023-04-10T06:22:31.551Z,82.57
2023-04-10T06:23:31.572Z,81.95
2023-04-10T06:24:31.535Z,82.12
2023-04-10T06:25:31.562Z,81.19
2023-04-10T06:26:31.518Z,80.53
2023-04-10T06:27:31.516Z,80.01
2023-04-10T06:28:31.509Z,79.77
2023-04-10T06:29:31.516Z,79.66
2023-04-10T06:30:31.477Z,79.42
2023-04-10T06:31:31.516Z,78.91
2023-04-10T06:32:31.495Z,78.66
2023-04-10T06:33:31.505Z,77.80
2023-04-10T06:34:31.439Z,76.73
2023-04-10T06:35:31.520Z,76.53
2023-04-10T06:36:31.407Z,76.08
2023-04-10T06:37:31.489Z,75.63
2023-04-10T06:38:31.400Z,75.12
2023-04-10T06:39:31.407Z,74.46
2023-04-10T06:40:31.367Z,74.26
2023-04-10T06:41:31.392Z,73.40
2023-04-10T06:42:31.349Z,73.36
2023-04-10T06:43:31.358Z,73.13
2023-04-10T06:44:31.333Z,72.27
2023-04-10T06:45:31.359Z,71.31
2023-04-10T06:46:31.372Z,70.46
2023-04-10T06:47:31.336Z,69.94
2023-04-10T06:48:31.280Z,69.74
2023-04-10T06:49:31.314Z,69.50
2023-04-10T06:50:33.333Z,68.78
2023-04-10T06:51:31.284Z,68.65
2023-04-10T06:52:31.246Z,68.30
2023-04-10T06:53:31.264Z,68.07
2023-04-10T06:54:31.225Z,67.76
2023-04-10T06:55:31.228Z,66.81
2023-04-10T06:56:31.200Z,66.47
2023-04-10T06:57:31.233Z,65.55
2023-04-10T06:58:31.257Z,65.31
2023-04-10T06:59:31.184Z,64.90
2023-04-10T07:00:31.187Z,63.85
2023-04-10T07:01:31.162Z,63.21
2023-04-10T07:02:31.216Z,63.41
2023-04-10T07:03:31.167Z,63.28
2023-04-10T07:04:31.112Z,63.28
2023-04-10T07:05:31.133Z,62.77
2023-04-10T07:06:31.095Z,62.95
2023-04-10T07:07:31.119Z,62.02
2023-04-10T07:08:31.070Z,61.49
2023-04-10T07:09:31.077Z,60.85
2023-04-10T07:10:31.049Z,60.13
2023-04-10T07:11:31.077Z,60.13
2023-04-10T07:12:31.026Z,59.89
2023-04-10T07:13:31.060Z,59.87
2023-04-10T07:14:31.013Z,59.53
2023-04-10T07:15:31.013Z,58.92
2023-04-10T07:16:31.020Z,57.06
2023-04-10T07:17:31.019Z,57.17
2023-04-10T07:18:30.971Z,58.08
2023-04-10T07:19:31.015Z,57.44
2023-04-10T07:20:30.945Z,57.14
2023-04-10T07:21:30.964Z,57.14
2023-04-10T07:22:30.924Z,56.96
2023-04-10T07:23:30.952Z,57.39
2023-04-10T07:24:30.903Z,57.50
2023-04-10T07:25:30.928Z,56.76
2023-04-10T07:26:30.881Z,56.52
2023-04-10T07:27:30.900Z,55.99
2023-04-10T07:28:30.853Z,55.05
2023-04-10T07:29:30.901Z,54.85
2023-04-10T07:30:30.836Z,53.02
2023-04-10T07:31:30.986Z,54.03
2023-04-10T07:32:30.938Z,52.91
2023-04-10T07:33:30.866Z,52.76
2023-04-10T07:34:30.796Z,52.58
2023-04-10T07:35:30.903Z,53.09
2023-04-10T07:36:30.779Z,52.37
2023-04-10T07:37:30.810Z,52.35
2023-04-10T07:38:30.752Z,52.33
2023-04-10T07:39:30.757Z,51.59
2023-04-10T07:40:30.731Z,51.67
2023-04-10T07:41:30.758Z,50.43
2023-04-10T07:42:30.709Z,49.80
2023-04-10T07:43:30.722Z,49.21
2023-04-10T07:44:30.689Z,49.82
2023-04-10T07:45:30.706Z,50.10
2023-04-10T07:46:30.678Z,49.69
2023-04-10T07:47:30.707Z,49.16
2023-04-10T07:48:30.653Z,48.54
2023-04-10T07:49:30.665Z,47.92
2023-04-10T07:50:30.643Z,47.52
2023-04-10T07:51:30.647Z,47.92
2023-04-10T07:52:30.602Z,48.15
2023-04-10T07:53:30.622Z,48.58
2023-04-10T07:54:30.579Z,49.54
2023-04-10T07:55:30.610Z,49.62
2023-04-10T07:56:30.576Z,49.41
2023-04-10T07:57:30.578Z,49.64
2023-04-10T07:58:30.547Z,49.84
2023-04-10T07:59:30.569Z,49.62
2023-04-10T08:00:30.514Z,49.11
2023-04-10T08:01:30.556Z,49.80
2023-04-10T08:02:30.680Z,47.75
2023-04-10T08:03:30.668Z,47.42
2023-04-10T08:04:30.705Z,46.91
2023-04-10T08:05:30.540Z,47.31
2023-04-10T08:06:30.454Z,47.11
2023-04-10T08:07:30.475Z,47.11
2023-04-10T08:08:30.445Z,47.22
2023-04-10T08:09:30.434Z,46.79
2023-04-10T08:10:30.415Z,46.59
2023-04-10T08:11:30.415Z,46.61
2023-04-10T08:12:30.403Z,48.10
2023-04-10T08:13:30.396Z,49.03
2023-04-10T08:14:30.363Z,49.52
2023-04-10T08:15:30.392Z,49.66
2023-04-10T08:16:30.379Z,51.03
2023-04-10T08:17:30.405Z,51.03
2023-04-10T08:18:30.332Z,52.25
2023-04-10T08:19:30.344Z,50.83
2023-04-10T08:20:30.297Z,50.37
2023-04-10T08:21:30.304Z,50.25
2023-04-10T08:22:30.270Z,49.44
2023-04-10T08:23:30.331Z,49.46
2023-04-10T08:24:30.262Z,49.58
2023-04-10T08:25:30.310Z,49.91
2023-04-10T08:26:30.232Z,50.62
2023-04-10T08:27:30.271Z,51.14
2023-04-10T08:28:30.239Z,49.97
2023-04-10T08:29:30.215Z,49.64
2023-04-10T08:30:30.254Z,48.71
2023-04-10T08:31:30.296Z,48.38
2023-04-10T08:32:30.235Z,48.38
2023-04-10T08:33:30.163Z,47.24
2023-04-10T08:34:30.273Z,46.61
2023-04-10T08:35:30.149Z,46.41
2023-04-10T08:36:30.143Z,46.10
2023-04-10T08:37:30.115Z,46.61
2023-04-10T08:38:30.118Z,45.78
2023-04-10T08:39:30.096Z,45.98
2023-04-10T08:40:30.128Z,45.70
2023-04-10T08:41:30.087Z,46.10
2023-04-10T08:42:30.085Z,46.41
2023-04-10T08:43:30.071Z,46.55
2023-04-10T08:44:30.072Z,47.79
2023-04-10T08:45:30.029Z,47.99
2023-04-10T08:46:30.140Z,47.26
2023-04-10T08:47:30.027Z,46.33
2023-04-10T08:48:30.046Z,45.70
2023-04-10T08:49:29.991Z,46.12
2023-04-10T08:50:29.995Z,45.59
2023-04-10T08:51:29.967Z,46.28
2023-04-10T08:52:29.970Z,45.04
2023-04-10T08:53:29.946Z,43.61
2023-04-10T08:54:29.960Z,43.23
2023-04-10T08:55:29.938Z,43.71
2023-04-10T08:56:29.928Z,42.60
2023-04-10T08:57:29.904Z,42.60
2023-04-10T08:58:29.939Z,43.73
2023-04-10T08:59:29.890Z,44.03
2023-04-10T09:00:29.898Z,44.56
2023-04-10T09:01:29.900Z,45.27
2023-04-10T09:02:30.083Z,45.19
2023-04-10T09:03:30.127Z,45.23
2023-04-10T09:04:29.958Z,46.59
2023-04-10T09:05:29.825Z,46.59
2023-04-10T09:06:29.844Z,46.59
2023-04-10T09:07:29.837Z,46.88
2023-04-10T09:08:29.798Z,46.78
2023-04-10T09:09:29.777Z,45.94
2023-04-10T09:10:29.790Z,45.97
2023-04-10T09:11:29.753Z,45.74
2023-04-10T09:12:29.787Z,45.51
2023-04-10T09:13:29.735Z,44.15
2023-04-10T09:14:29.856Z,44.58
2023-04-10T09:15:29.712Z,44.66
2023-04-10T09:16:29.927Z,44.62
2023-04-10T09:17:29.731Z,43.29
2023-04-10T09:18:29.708Z,41.83
2023-04-10T09:19:29.684Z,41.44
2023-04-10T09:20:29.699Z,41.55
2023-04-10T09:21:29.656Z,41.24
2023-04-10T09:22:29.665Z,41.95
2023-04-10T09:23:29.638Z,41.52
2023-04-10T09:24:29.638Z,40.21
2023-04-10T09:25:29.605Z,40.64
2023-04-10T09:26:29.660Z,40.73
2023-04-10T09:27:29.586Z,40.72
2023-04-10T09:28:29.617Z,39.57
2023-04-10T09:29:29.568Z,39.25
2023-04-10T09:30:29.585Z,39.73
2023-04-10T09:31:29.555Z,38.52
2023-04-10T09:32:29.569Z,39.75
2023-04-10T09:33:29.522Z,39.65
2023-04-10T09:34:29.542Z,38.62
2023-04-10T09:35:29.516Z,38.81
2023-04-10T09:36:29.516Z,38.08
2023-04-10T09:37:29.475Z,37.48
2023-04-10T09:38:29.496Z,37.76
2023-04-10T09:39:29.455Z,37.26
2023-04-10T09:40:29.485Z,38.00
2023-04-10T09:41:29.435Z,38.02
2023-04-10T09:42:29.455Z,38.82
2023-04-10T09:43:29.431Z,39.01
2023-04-10T09:44:29.428Z,38.62
2023-04-10T09:45:29.427Z,38.91
2023-04-10T09:46:29.429Z,37.87
2023-04-10T09:47:29.396Z,36.46
2023-04-10T09:48:29.399Z,36.44
2023-04-10T09:49:29.347Z,36.24
2023-04-10T09:50:29.368Z,36.54
2023-04-10T09:51:29.326Z,36.25
2023-04-10T09:52:29.338Z,36.46
2023-04-10T09:53:29.319Z,37.78
2023-04-10T09:54:29.334Z,37.26
2023-04-10T09:55:29.286Z,36.76
2023-04-10T09:56:29.325Z,36.46
2023-04-10T09:57:29.281Z,36.99
2023-04-10T09:58:29.272Z,37.60
2023-04-10T09:59:29.249Z,37.18
2023-04-10T10:00:29.257Z,35.95
2023-04-10T10:01:29.248Z,36.24
2023-04-10T10:02:29.373Z,36.92
2023-04-10T10:03:29.382Z,35.90
2023-04-10T10:04:29.229Z,35.39
2023-04-10T10:05:29.181Z,35.60
2023-04-10T10:06:35.710Z,36.11
2023-04-10T10:07:29.180Z,36.40
2023-04-10T10:08:29.196Z,36.30
2023-04-10T10:09:29.444Z,35.18
2023-04-10T10:10:29.169Z,34.98
2023-04-10T10:11:29.154Z,35.38
2023-04-10T10:12:29.157Z,34.06
2023-04-10T10:13:29.096Z,34.06
2023-04-10T10:14:29.151Z,34.36
2023-04-10T10:15:29.078Z,34.49
2023-04-10T10:16:29.133Z,34.99
2023-04-10T10:17:29.137Z,34.29
2023-04-10T10:18:29.080Z,33.77
2023-04-10T10:19:29.039Z,33.86
2023-04-10T10:20:29.053Z,34.58
2023-04-10T10:21:29.020Z,34.69
2023-04-10T10:22:29.042Z,34.99
2023-04-10T10:23:29.001Z,35.21
2023-04-10T10:24:29.025Z,34.91
2023-04-10T10:25:28.973Z,34.79
2023-04-10T10:26:29.003Z,35.70
2023-04-10T10:27:28.958Z,35.50
2023-04-10T10:28:29.003Z,34.47
2023-04-10T10:29:28.943Z,34.56
2023-04-10T10:30:30.389Z,33.14
2023-04-10T10:31:28.951Z,34.17
2023-04-10T10:32:28.956Z,35.88
2023-04-10T10:33:28.894Z,33.86
2023-04-10T10:34:28.958Z,33.12
2023-04-10T10:35:30.055Z,33.51
2023-04-10T10:36:28.919Z,32.49
2023-04-10T10:37:28.857Z,32.62
2023-04-10T10:38:28.874Z,31.92
2023-04-10T10:39:28.841Z,32.00
2023-04-10T10:40:28.869Z,31.20
2023-04-10T10:41:28.829Z,31.48
2023-04-10T10:42:28.828Z,31.09
2023-04-10T10:43:28.799Z,31.71
2023-04-10T10:44:28.816Z,32.23
2023-04-10T10:45:28.811Z,32.55
2023-04-10T10:46:28.808Z,32.45
2023-04-10T10:47:28.774Z,31.23
2023-04-10T10:48:28.758Z,31.73
2023-04-10T10:49:28.734Z,32.87
2023-04-10T10:50:28.747Z,33.44
2023-04-10T10:51:28.718Z,33.62
2023-04-10T10:52:28.732Z,32.50
2023-04-10T10:53:28.706Z,31.29
2023-04-10T10:54:28.694Z,31.70
2023-04-10T10:55:28.680Z,31.20
2023-04-10T10:56:28.688Z,30.50
2023-04-10T10:57:28.651Z,30.91
2023-04-10T10:58:28.652Z,30.31
2023-04-10T10:59:28.622Z,30.60
2023-04-10T11:00:28.657Z,30.98
2023-04-10T11:01:28.725Z,30.27
2023-04-10T11:02:28.737Z,30.45
2023-04-10T11:03:28.842Z,30.55
2023-04-10T11:04:28.613Z,29.94
2023-04-10T11:05:28.595Z,29.53
2023-04-10T11:06:28.615Z,29.75
2023-04-10T11:07:28.546Z,31.17
2023-04-10T11:08:28.574Z,30.45
2023-04-10T11:09:28.552Z,30.76
2023-04-10T11:10:28.552Z,30.77
2023-04-10T11:11:28.547Z,30.07
2023-04-10T11:12:28.568Z,30.18
2023-04-10T11:13:28.499Z,30.87
2023-04-10T11:14:28.491Z,30.97
2023-04-10T11:15:28.470Z,29.86
2023-04-10T11:16:28.506Z,28.66
2023-04-10T11:17:28.477Z,29.16
2023-04-10T11:18:28.471Z,28.25
2023-04-10T11:19:28.633Z,29.25
2023-04-10T11:20:28.443Z,29.65
2023-04-10T11:21:28.404Z,28.74
2023-04-10T11:22:28.409Z,29.74
2023-04-10T11:23:28.382Z,28.72
2023-04-10T11:24:28.409Z,28.62
2023-04-10T11:25:28.366Z,28.46
2023-04-10T11:26:28.379Z,29.32
2023-04-10T11:27:28.345Z,30.02
2023-04-10T11:28:28.357Z,30.84
2023-04-10T11:29:28.326Z,31.24
2023-04-10T11:30:28.330Z,31.16
2023-04-10T11:31:28.323Z,31.76
2023-04-10T11:32:28.353Z,31.54
2023-04-10T11:33:28.279Z,30.93
2023-04-10T11:34:28.305Z,30.41
2023-04-10T11:35:28.291Z,30.32
2023-04-10T11:36:28.272Z,29.52
2023-04-10T11:37:28.230Z,29.93
2023-04-10T11:38:28.255Z,30.32
2023-04-10T11:39:28.218Z,29.49
2023-04-10T11:40:28.240Z,30.38
2023-04-10T11:41:28.198Z,29.47
2023-04-10T11:42:28.236Z,29.45
2023-04-10T11:43:28.186Z,29.03
2023-04-10T11:44:28.184Z,28.64
2023-04-10T11:45:28.170Z,28.84
2023-04-10T11:46:28.222Z,28.53
2023-04-10T11:47:28.142Z,28.64
2023-04-10T11:48:28.147Z,28.65
2023-04-10T11:49:28.114Z,28.66
2023-04-10T11:50:28.125Z,29.69
2023-04-10T11:51:28.102Z,29.69
2023-04-10T11:52:28.104Z,30.01
2023-04-10T11:53:28.068Z,30.31
2023-04-10T11:54:28.083Z,30.60
2023-04-10T11:55:28.044Z,30.51
2023-04-10T11:56:28.063Z,31.20
2023-04-10T11:57:28.032Z,30.08
2023-04-10T11:58:28.043Z,29.27
2023-04-10T11:59:27.997Z,30.63
2023-04-10T12:00:28.026Z,31.56
2023-04-10T12:01:27.978Z,32.06
2023-04-10T12:02:28.103Z,32.68
2023-04-10T12:03:28.035Z,32.26
2023-04-10T12:04:28.289Z,31.76
2023-04-10T12:05:27.952Z,31.86
2023-04-10T12:06:27.940Z,31.83
2023-04-10T12:07:27.928Z,30.60
2023-04-10T12:08:27.934Z,29.88
2023-04-10T12:09:27.893Z,30.10
2023-04-10T12:10:27.901Z,30.18
2023-04-10T12:11:27.880Z,29.77
2023-04-10T12:12:27.905Z,29.68
2023-04-10T12:13:27.867Z,30.68
2023-04-10T12:14:27.856Z,29.78
2023-04-10T12:15:27.881Z,29.98
2023-04-10T12:16:27.867Z,30.52
2023-04-10T12:17:27.833Z,31.65
2023-04-10T12:18:27.830Z,31.73
2023-04-10T12:19:27.791Z,31.50
2023-04-10T12:20:27.803Z,30.36
2023-04-10T12:21:27.774Z,30.04
2023-04-10T12:22:27.777Z,28.32
2023-04-10T12:23:27.769Z,28.11
2023-04-10T12:24:27.789Z,28.21
2023-04-10T12:25:27.732Z,28.21
2023-04-10T12:26:27.753Z,28.64
2023-04-10T12:27:27.786Z,29.44
2023-04-10T12:28:27.723Z,29.44
2023-04-10T12:29:27.711Z,28.82
2023-04-10T12:30:27.708Z,27.71
2023-04-10T12:31:27.744Z,27.12
2023-04-10T12:32:27.893Z,28.33
2023-04-10T12:33:27.664Z,27.73
2023-04-10T12:34:27.672Z,27.44
2023-04-10T12:35:27.674Z,28.62
2023-04-10T12:36:27.637Z,27.66
2023-04-10T12:37:27.615Z,27.96
2023-04-10T12:38:27.622Z,28.67
2023-04-10T12:39:27.594Z,28.08
2023-04-10T12:40:27.625Z,27.76
2023-04-10T12:41:27.578Z,27.86
2023-04-10T12:42:27.556Z,27.67
2023-04-10T12:43:27.578Z,28.09
2023-04-10T12:44:27.560Z,28.98
2023-04-10T12:45:27.598Z,28.66
2023-04-10T12:46:27.754Z,28.33
2023-04-10T12:47:27.557Z,28.52
2023-04-10T12:48:27.495Z,27.31
2023-04-10T12:49:27.515Z,26.71
2023-04-10T12:50:27.475Z,26.91
2023-04-10T12:51:27.508Z,27.31
2023-04-10T12:52:27.463Z,26.71